createdAt,value
2022-08-26T00:00:41.743Z,14.70
2022-08-26T00:01:42.133Z,5.50
2022-08-26T00:02:41.754Z,7.30
2022-08-26T00:03:41.737Z,10.10
2022-08-26T00:04:41.692Z,7.00
2022-08-26T00:05:41.694Z,7.80
2022-08-26T00:06:42.714Z,5.70
2022-08-26T00:07:41.681Z,12.90
2022-08-26T00:08:42.051Z,7.10
2022-08-26T00:09:41.635Z,6.00
2022-08-26T00:10:41.652Z,8.50
2022-08-26T00:11:41.613Z,6.90
2022-08-26T00:12:41.632Z,7.60
2022-08-26T00:13:41.593Z,7.20
2022-08-26T00:14:41.637Z,7.00
2022-08-26T00:15:42.015Z,8.40
2022-08-26T00:16:47.929Z,8.90
2022-08-26T00:17:41.554Z,16.30
2022-08-26T00:18:41.557Z,5.90
2022-08-26T00:19:41.526Z,9.20
2022-08-26T00:20:41.940Z,6.90
2022-08-26T00:21:41.526Z,6.80
2022-08-26T00:22:41.873Z,8.60
2022-08-26T00:23:41.490Z,8.30
2022-08-26T00:24:41.493Z,7.20
2022-08-26T00:25:42.570Z,8.40
2022-08-26T00:26:41.655Z,7.80
2022-08-26T00:27:41.440Z,7.80
2022-08-26T00:28:41.445Z,7.30
2022-08-26T00:29:41.951Z,7.30
2022-08-26T00:30:41.421Z,8.70
2022-08-26T00:31:41.433Z,8.80
2022-08-26T00:32:41.420Z,8.80
2022-08-26T00:33:41.373Z,9.90
2022-08-26T00:34:41.367Z,7.40
2022-08-26T00:35:45.234Z,10.90
2022-08-26T00:36:41.801Z,7.60
2022-08-26T00:37:41.340Z,6.10
2022-08-26T00:38:41.349Z,9.80
2022-08-26T00:39:41.309Z,7.60
2022-08-26T00:40:41.301Z,6.10
2022-08-26T00:41:41.285Z,8.90
2022-08-26T00:42:41.288Z,6.40
2022-08-26T00:43:47.339Z,7.70
2022-08-26T00:44:41.294Z,7.50
2022-08-26T00:45:41.278Z,6.40
2022-08-26T00:46:46.534Z,10.00
2022-08-26T00:47:41.231Z,6.80
2022-08-26T00:48:41.221Z,9.50
2022-08-26T00:49:41.651Z,7.00
2022-08-26T00:50:41.231Z,7.40
2022-08-26T00:51:41.183Z,8.20
2022-08-26T00:52:41.182Z,7.50
2022-08-26T00:53:41.481Z,5.30
2022-08-26T00:54:42.422Z,7.40
2022-08-26T00:55:41.137Z,7.90
2022-08-26T00:56:41.557Z,6.70
2022-08-26T00:57:41.134Z,6.20
2022-08-26T00:58:41.117Z,8.50
2022-08-26T00:59:41.094Z,6.80
2022-08-26T01:00:41.170Z,9.40
2022-08-26T01:01:41.081Z,9.40
2022-08-26T01:02:41.146Z,5.90
2022-08-26T01:03:41.055Z,7.10
2022-08-26T01:04:41.064Z,6.70
2022-08-26T01:05:41.037Z,6.60
2022-08-26T01:06:41.023Z,6.40
2022-08-26T01:07:41.024Z,8.90
2022-08-26T01:08:41.051Z,7.70
2022-08-26T01:09:41.374Z,7.40
2022-08-26T01:10:40.981Z,7.60
2022-08-26T01:11:40.955Z,12.90
2022-08-26T01:12:40.955Z,8.80
2022-08-26T01:13:40.941Z,9.70
2022-08-26T01:14:41.009Z,7.10
2022-08-26T01:15:40.943Z,9.10
2022-08-26T01:16:42.243Z,6.80
2022-08-26T01:17:40.897Z,6.60
2022-08-26T01:18:40.895Z,7.00
2022-08-26T01:19:40.882Z,6.80
2022-08-26T01:20:40.931Z,6.80
2022-08-26T01:21:41.284Z,7.70
2022-08-26T01:22:40.855Z,5.80
2022-08-26T01:23:42.292Z,8.60
2022-08-26T01:24:40.825Z,8.20
2022-08-26T01:25:40.807Z,7.70
2022-08-26T01:26:40.843Z,6.80
2022-08-26T01:27:40.798Z,6.90
2022-08-26T01:28:40.794Z,7.10
2022-08-26T01:29:40.776Z,9.00
2022-08-26T01:30:41.094Z,5.90
2022-08-26T01:31:40.842Z,9.20
2022-08-26T01:32:40.772Z,8.40
2022-08-26T01:33:42.583Z,9.70
2022-08-26T01:34:40.722Z,10.10
2022-08-26T01:35:40.712Z,8.20
2022-08-26T01:36:40.728Z,7.50
2022-08-26T01:37:41.145Z,8.90
2022-08-26T01:38:40.701Z,7.20
2022-08-26T01:39:40.659Z,7.10
2022-08-26T01:40:40.662Z,8.20
2022-08-26T01:41:40.645Z,7.50
2022-08-26T01:42:40.636Z,8.90
2022-08-26T01:43:40.635Z,9.80
2022-08-26T01:44:41.055Z,9.90
2022-08-26T01:45:40.733Z,9.40
2022-08-26T01:46:40.586Z,7.70
2022-08-26T01:47:40.587Z,8.40
2022-08-26T01:48:40.563Z,8.30
2022-08-26T01:49:40.553Z,8.00
2022-08-26T01:50:40.579Z,9.70
2022-08-26T01:51:40.831Z,9.20
2022-08-26T01:52:40.529Z,8.70
2022-08-26T01:53:41.808Z,9.10
2022-08-26T01:54:40.517Z,9.20
2022-08-26T01:55:40.478Z,12.30
2022-08-26T01:56:40.510Z,9.60
2022-08-26T01:57:40.485Z,7.20
2022-08-26T01:58:40.471Z,9.20
2022-08-26T01:59:40.469Z,9.40
2022-08-26T02:00:40.482Z,8.30
2022-08-26T02:01:40.420Z,8.60
2022-08-26T02:02:40.450Z,10.90
2022-08-26T02:03:40.446Z,7.20
2022-08-26T02:04:41.811Z,7.60
2022-08-26T02:05:40.381Z,10.60
2022-08-26T02:06:40.374Z,8.40
2022-08-26T02:07:40.375Z,8.70
2022-08-26T02:08:40.381Z,8.30
2022-08-26T02:09:41.323Z,11.90
2022-08-26T02:10:40.324Z,8.70
2022-08-26T02:11:40.322Z,10.50
2022-08-26T02:12:40.304Z,9.30
2022-08-26T02:13:40.308Z,8.60
2022-08-26T02:14:44.037Z,8.20
2022-08-26T02:15:40.273Z,6.70
2022-08-26T02:16:42.336Z,7.60
2022-08-26T02:17:40.256Z,10.90
2022-08-26T02:18:40.241Z,7.70
2022-08-26T02:19:40.235Z,6.10
2022-08-26T02:20:40.255Z,7.70
2022-08-26T02:21:40.206Z,7.00
2022-08-26T02:22:40.187Z,11.50
2022-08-26T02:23:40.188Z,10.90
2022-08-26T02:24:40.181Z,13.80
2022-08-26T02:25:40.186Z,8.20
2022-08-26T02:26:40.202Z,10.50
2022-08-26T02:27:40.177Z,7.60
2022-08-26T02:28:40.464Z,9.70
2022-08-26T02:29:40.135Z,9.90
2022-08-26T02:30:40.112Z,8.00
2022-08-26T02:31:40.133Z,9.40
2022-08-26T02:32:40.331Z,7.40
2022-08-26T02:33:43.037Z,9.50
2022-08-26T02:34:40.064Z,11.00
2022-08-26T02:35:40.507Z,11.90
2022-08-26T02:36:40.045Z,10.20
2022-08-26T02:37:41.846Z,8.60
2022-08-26T02:38:40.080Z,8.40
2022-08-26T02:39:40.026Z,10.10
2022-08-26T02:40:40.041Z,11.20
2022-08-26T02:41:45.041Z,12.30
2022-08-26T02:42:39.982Z,10.40
2022-08-26T02:43:39.983Z,9.50
2022-08-26T02:44:39.978Z,13.80
2022-08-26T02:45:39.978Z,8.00
2022-08-26T02:46:39.991Z,9.90
2022-08-26T02:47:39.954Z,6.60
2022-08-26T02:48:40.398Z,10.30
2022-08-26T02:49:39.915Z,7.40
2022-08-26T02:50:39.924Z,11.90
2022-08-26T02:51:39.901Z,9.00
2022-08-26T02:52:39.895Z,12.20
2022-08-26T02:53:39.870Z,8.70
2022-08-26T02:54:39.883Z,9.80
2022-08-26T02:55:41.278Z,8.40
2022-08-26T02:56:39.875Z,9.70
2022-08-26T02:57:39.825Z,11.00
2022-08-26T02:58:39.801Z,11.30
2022-08-26T02:59:39.811Z,9.80
2022-08-26T03:00:39.858Z,8.70
2022-08-26T03:01:39.815Z,9.60
2022-08-26T03:02:40.133Z,8.70
2022-08-26T03:03:39.756Z,9.90
2022-08-26T03:04:39.745Z,10.10
2022-08-26T03:05:39.739Z,7.90
2022-08-26T03:06:40.806Z,7.40
2022-08-26T03:07:39.717Z,9.20
2022-08-26T03:08:39.757Z,8.30
2022-08-26T03:09:40.123Z,9.10
2022-08-26T03:10:39.681Z,8.80
2022-08-26T03:11:39.689Z,8.10
2022-08-26T03:12:39.659Z,12.80
2022-08-26T03:13:39.655Z,9.30
2022-08-26T03:14:39.683Z,9.10
2022-08-26T03:15:39.626Z,7.30
2022-08-26T03:16:39.985Z,7.00
2022-08-26T03:17:39.613Z,8.60
2022-08-26T03:18:39.588Z,7.20
2022-08-26T03:19:39.582Z,9.00
2022-08-26T03:20:39.604Z,9.20
2022-08-26T03:21:39.582Z,10.70
2022-08-26T03:22:39.543Z,7.00
2022-08-26T03:23:40.020Z,11.30
2022-08-26T03:24:39.533Z,8.10
2022-08-26T03:25:39.539Z,7.70
2022-08-26T03:26:39.560Z,11.70
2022-08-26T03:27:39.513Z,10.00
2022-08-26T03:28:39.483Z,14.50
2022-08-26T03:29:39.487Z,9.00
2022-08-26T03:30:39.864Z,9.00
2022-08-26T03:31:39.528Z,8.00
2022-08-26T03:32:39.515Z,9.90
2022-08-26T03:33:39.440Z,9.40
2022-08-26T03:34:39.431Z,8.60
2022-08-26T03:35:39.412Z,8.50
2022-08-26T03:36:39.428Z,7.40
2022-08-26T03:37:39.727Z,8.10
2022-08-26T03:38:39.445Z,10.40
2022-08-26T03:39:39.390Z,8.70
2022-08-26T03:40:39.904Z,12.30
2022-08-26T03:41:39.357Z,9.20
2022-08-26T03:42:39.347Z,11.30
2022-08-26T03:43:39.336Z,9.50
2022-08-26T03:44:42.184Z,13.50
2022-08-26T03:45:39.304Z,10.00
2022-08-26T03:46:39.410Z,10.10
2022-08-26T03:47:39.324Z,9.10
2022-08-26T03:48:39.278Z,16.80
2022-08-26T03:49:39.324Z,9.00
2022-08-26T03:50:39.305Z,8.80
2022-08-26T03:51:39.604Z,18.80
2022-08-26T03:52:43.535Z,9.10
2022-08-26T03:53:39.223Z,9.30
2022-08-26T03:54:39.215Z,11.90
2022-08-26T03:55:39.210Z,11.20
2022-08-26T03:56:39.216Z,10.90
2022-08-26T03:57:39.207Z,9.40
2022-08-26T03:58:39.635Z,10.90
2022-08-26T03:59:39.173Z,8.70
2022-08-26T04:00:39.157Z,9.80
2022-08-26T04:01:39.192Z,10.70
2022-08-26T04:02:39.204Z,13.60
2022-08-26T04:03:39.112Z,9.00
2022-08-26T04:04:39.102Z,10.40
2022-08-26T04:05:39.493Z,11.20
2022-08-26T04:06:39.067Z,11.10
2022-08-26T04:07:39.092Z,12.10
2022-08-26T04:08:39.107Z,10.10
2022-08-26T04:09:39.064Z,10.40
2022-08-26T04:10:39.054Z,12.30
2022-08-26T04:11:39.038Z,16.40
2022-08-26T04:12:39.326Z,11.50
2022-08-26T04:13:39.011Z,11.00
2022-08-26T04:14:39.078Z,15.20
2022-08-26T04:15:38.981Z,13.00
2022-08-26T04:16:38.960Z,16.30
2022-08-26T04:17:38.970Z,17.30
2022-08-26T04:18:46.585Z,14.10
2022-08-26T04:19:38.957Z,16.60
2022-08-26T04:20:38.964Z,11.90
2022-08-26T04:21:38.914Z,12.90
2022-08-26T04:22:38.898Z,12.90
2022-08-26T04:23:47.144Z,14.00
2022-08-26T04:24:38.888Z,13.90
2022-08-26T04:25:38.878Z,17.90
2022-08-26T04:26:39.351Z,13.10
2022-08-26T04:27:38.854Z,15.60
2022-08-26T04:28:38.874Z,17.70
2022-08-26T04:29:38.835Z,19.10
2022-08-26T04:30:39.254Z,15.40
2022-08-26T04:31:38.841Z,15.70
2022-08-26T04:32:38.832Z,15.10
2022-08-26T04:33:41.878Z,15.10
2022-08-26T04:34:38.779Z,15.40
2022-08-26T04:35:38.763Z,19.00
2022-08-26T04:36:38.742Z,19.40
2022-08-26T04:37:38.790Z,17.60
2022-08-26T04:38:38.769Z,18.50
2022-08-26T04:39:38.720Z,17.30
2022-08-26T04:40:38.738Z,20.30
2022-08-26T04:41:38.710Z,16.10
2022-08-26T04:42:39.132Z,19.30
2022-08-26T04:43:38.695Z,19.90
2022-08-26T04:44:38.742Z,20.30
2022-08-26T04:45:38.664Z,21.60
2022-08-26T04:46:39.874Z,20.90
2022-08-26T04:47:38.633Z,21.30
2022-08-26T04:48:38.617Z,25.10
2022-08-26T04:49:38.955Z,20.80
2022-08-26T04:50:38.638Z,15.70
2022-08-26T04:51:38.597Z,20.90
2022-08-26T04:52:38.597Z,18.90
2022-08-26T04:53:38.576Z,18.20
2022-08-26T04:54:38.552Z,22.10
2022-08-26T04:55:42.679Z,20.30
2022-08-26T04:56:38.561Z,20.20
2022-08-26T04:57:38.528Z,24.50
2022-08-26T04:58:38.511Z,23.90
2022-08-26T04:59:39.413Z,23.80
2022-08-26T05:00:38.485Z,25.70
2022-08-26T05:01:39.546Z,25.10
2022-08-26T05:02:38.915Z,22.30
2022-08-26T05:03:38.530Z,24.10
2022-08-26T05:04:38.435Z,27.70
2022-08-26T05:05:38.446Z,25.50
2022-08-26T05:06:38.465Z,25.10
2022-08-26T05:07:38.418Z,23.50
2022-08-26T05:08:38.420Z,28.90
2022-08-26T05:09:38.689Z,28.70
2022-08-26T05:10:38.372Z,24.90
2022-08-26T05:11:38.375Z,30.80
2022-08-26T05:12:38.373Z,22.60
2022-08-26T05:13:38.356Z,29.50
2022-08-26T05:14:38.366Z,22.50
2022-08-26T05:15:38.400Z,28.10
2022-08-26T05:16:38.977Z,25.20
2022-08-26T05:17:38.306Z,27.10
2022-08-26T05:18:38.284Z,24.60
2022-08-26T05:19:38.588Z,23.40
2022-08-26T05:20:38.304Z,32.90
2022-08-26T05:21:38.278Z,27.90
2022-08-26T05:22:38.249Z,25.20
2022-08-26T05:23:38.579Z,31.60
2022-08-26T05:24:38.225Z,28.30
2022-08-26T05:25:38.223Z,25.60
2022-08-26T05:26:38.247Z,32.70
2022-08-26T05:27:38.218Z,30.70
2022-08-26T05:28:38.176Z,26.30
2022-08-26T05:29:38.166Z,29.50
2022-08-26T05:30:38.646Z,29.00
2022-08-26T05:31:38.159Z,30.20
2022-08-26T05:32:38.177Z,36.10
2022-08-26T05:33:38.138Z,32.00
2022-08-26T05:34:38.111Z,28.10
2022-08-26T05:35:38.139Z,24.80
2022-08-26T05:36:38.097Z,26.70
2022-08-26T05:37:38.493Z,33.90
2022-08-26T05:38:38.103Z,31.50
2022-08-26T05:39:38.113Z,30.40
2022-08-26T05:40:38.131Z,29.90
2022-08-26T05:41:38.271Z,33.30
2022-08-26T05:42:38.027Z,27.90
2022-08-26T05:43:38.029Z,37.80
2022-08-26T05:44:55.534Z,32.50
2022-08-26T05:45:41.189Z,32.50
2022-08-26T05:46:38.099Z,40.40
2022-08-26T05:47:37.976Z,27.60
2022-08-26T05:48:37.978Z,27.50
2022-08-26T05:49:37.952Z,36.80
2022-08-26T05:50:37.971Z,34.40
2022-08-26T05:51:38.360Z,37.80
2022-08-26T05:52:37.921Z,34.80
2022-08-26T05:53:37.920Z,33.40
2022-08-26T05:54:38.082Z,31.70
2022-08-26T05:55:37.951Z,32.40
2022-08-26T05:56:37.917Z,33.50
2022-08-26T05:57:42.205Z,32.10
2022-08-26T05:58:37.919Z,29.70
2022-08-26T05:59:37.852Z,35.30
2022-08-26T06:00:37.824Z,33.20
2022-08-26T06:01:37.932Z,33.20
2022-08-26T06:02:37.934Z,33.90
2022-08-26T06:03:37.812Z,35.30
2022-08-26T06:04:38.061Z,36.30
2022-08-26T06:05:39.269Z,39.30
2022-08-26T06:06:37.765Z,38.00
2022-08-26T06:07:37.777Z,40.50
2022-08-26T06:08:37.780Z,36.40
2022-08-26T06:09:38.614Z,34.00
2022-08-26T06:10:37.735Z,36.60
2022-08-26T06:11:37.735Z,39.40
2022-08-26T06:12:37.703Z,32.30
2022-08-26T06:13:37.709Z,38.30
2022-08-26T06:14:37.729Z,35.50
2022-08-26T06:15:37.782Z,32.70
2022-08-26T06:16:37.936Z,34.10
2022-08-26T06:17:37.653Z,31.80
2022-08-26T06:18:37.647Z,33.50
2022-08-26T06:19:37.633Z,36.60
2022-08-26T06:20:37.653Z,35.90
2022-08-26T06:21:37.605Z,32.10
2022-08-26T06:22:37.600Z,35.50
2022-08-26T06:23:37.585Z,28.90
2022-08-26T06:24:37.577Z,33.50
2022-08-26T06:25:37.592Z,35.70
2022-08-26T06:26:37.596Z,36.60
2022-08-26T06:27:37.545Z,29.00
2022-08-26T06:28:38.885Z,37.30
2022-08-26T06:29:37.656Z,35.60
2022-08-26T06:30:37.521Z,34.10
2022-08-26T06:31:37.547Z,30.10
2022-08-26T06:32:37.587Z,33.70
2022-08-26T06:33:37.473Z,33.10
2022-08-26T06:34:37.514Z,35.50
2022-08-26T06:35:37.745Z,34.90
2022-08-26T06:36:37.453Z,34.40
2022-08-26T06:37:37.431Z,38.50
2022-08-26T06:38:37.495Z,30.50
2022-08-26T06:39:41.245Z,36.30
2022-08-26T06:40:37.406Z,30.90
2022-08-26T06:41:41.405Z,28.90
2022-08-26T06:42:37.389Z,31.40
2022-08-26T06:43:37.366Z,31.20
2022-08-26T06:44:37.405Z,30.90
2022-08-26T06:45:37.350Z,34.30
2022-08-26T06:46:37.423Z,29.00
2022-08-26T06:47:37.361Z,35.40
2022-08-26T06:48:37.600Z,34.40
2022-08-26T06:49:37.310Z,29.30
2022-08-26T06:50:37.332Z,31.50
2022-08-26T06:51:37.304Z,32.00
2022-08-26T06:52:37.286Z,30.10
2022-08-26T06:53:37.261Z,31.80
2022-08-26T06:54:38.895Z,27.00
2022-08-26T06:55:37.528Z,34.80
2022-08-26T06:56:37.287Z,29.10
2022-08-26T06:57:37.651Z,29.20
2022-08-26T06:58:37.225Z,30.10
2022-08-26T06:59:37.188Z,34.20
2022-08-26T07:00:37.190Z,27.30
2022-08-26T07:01:37.271Z,31.90
2022-08-26T07:02:37.576Z,24.60
2022-08-26T07:03:39.653Z,27.60
2022-08-26T07:04:37.142Z,32.30
2022-08-26T07:05:37.128Z,30.90
2022-08-26T07:06:37.119Z,30.40
2022-08-26T07:07:37.173Z,23.90
2022-08-26T07:08:37.187Z,26.90
2022-08-26T07:09:37.394Z,28.70
2022-08-26T07:10:37.117Z,27.40
2022-08-26T07:11:37.057Z,33.50
2022-08-26T07:12:37.061Z,22.40
2022-08-26T07:13:37.047Z,28.40
2022-08-26T07:14:37.081Z,29.00
2022-08-26T07:15:37.089Z,28.30
2022-08-26T07:16:37.285Z,31.00
2022-08-26T07:17:37.000Z,29.50
2022-08-26T07:18:36.996Z,26.70
2022-08-26T07:19:36.990Z,30.30
2022-08-26T07:20:36.995Z,27.50
2022-08-26T07:21:36.959Z,34.80
2022-08-26T07:22:36.948Z,27.40
2022-08-26T07:23:37.210Z,26.10
2022-08-26T07:24:36.958Z,37.00
2022-08-26T07:25:36.909Z,24.30
2022-08-26T07:26:36.955Z,26.50
2022-08-26T07:27:36.914Z,33.70
2022-08-26T07:28:36.879Z,31.60
2022-08-26T07:29:36.861Z,23.80
2022-08-26T07:30:37.208Z,26.70
2022-08-26T07:31:39.416Z,27.00
2022-08-26T07:32:36.945Z,24.40
2022-08-26T07:33:36.830Z,26.00
2022-08-26T07:34:36.845Z,24.90
2022-08-26T07:35:36.796Z,28.30
2022-08-26T07:36:36.796Z,24.70
2022-08-26T07:37:39.328Z,26.20
2022-08-26T07:38:36.837Z,28.40
2022-08-26T07:39:37.304Z,27.60
2022-08-26T07:40:36.746Z,22.80
2022-08-26T07:41:36.756Z,26.60
2022-08-26T07:42:36.728Z,25.30
2022-08-26T07:43:36.733Z,22.30
2022-08-26T07:44:37.045Z,21.80
2022-08-26T07:45:36.693Z,30.30
2022-08-26T07:46:36.713Z,24.10
2022-08-26T07:47:36.708Z,25.50
2022-08-26T07:48:36.661Z,27.10
2022-08-26T07:49:36.693Z,30.10
2022-08-26T07:50:50.344Z,20.80
2022-08-26T07:51:36.641Z,26.60
2022-08-26T07:52:36.648Z,30.50
2022-08-26T07:53:36.610Z,22.40
2022-08-26T07:54:36.902Z,23.10
2022-08-26T07:55:36.580Z,20.40
2022-08-26T07:56:36.646Z,28.00
2022-08-26T07:57:36.561Z,25.10
2022-08-26T07:58:36.577Z,24.20
2022-08-26T07:59:36.546Z,29.60
2022-08-26T08:00:36.548Z,20.50
2022-08-26T08:01:36.835Z,20.70
2022-08-26T08:02:36.556Z,23.80
2022-08-26T08:03:36.495Z,25.00
2022-08-26T08:04:36.761Z,25.70
2022-08-26T08:05:36.527Z,21.90
2022-08-26T08:06:36.493Z,25.70
2022-08-26T08:07:44.240Z,22.10
2022-08-26T08:08:36.501Z,23.20
2022-08-26T08:09:36.442Z,24.80
2022-08-26T08:10:36.454Z,24.90
2022-08-26T08:11:36.405Z,27.10
2022-08-26T08:12:36.408Z,25.90
2022-08-26T08:13:36.419Z,17.80
2022-08-26T08:14:36.689Z,24.10
2022-08-26T08:15:36.380Z,25.80
2022-08-26T08:16:39.124Z,23.30
2022-08-26T08:17:36.360Z,26.40
2022-08-26T08:18:36.337Z,23.40
2022-08-26T08:19:38.943Z,23.10
2022-08-26T08:20:36.365Z,25.70
2022-08-26T08:21:36.579Z,27.70
2022-08-26T08:22:36.313Z,20.60
2022-08-26T08:23:36.305Z,25.60
2022-08-26T08:24:36.284Z,19.80
2022-08-26T08:25:36.254Z,23.20
2022-08-26T08:26:36.279Z,24.40
2022-08-26T08:27:36.242Z,26.30
2022-08-26T08:28:36.520Z,24.00
2022-08-26T08:29:36.214Z,22.80
2022-08-26T08:30:36.288Z,23.40
2022-08-26T08:31:56.476Z,24.40
2022-08-26T08:32:36.267Z,24.00
2022-08-26T08:33:36.167Z,23.20
2022-08-26T08:34:36.209Z,20.60
2022-08-26T08:35:36.439Z,22.50
2022-08-26T08:36:36.464Z,25.00
2022-08-26T08:37:36.132Z,22.10
2022-08-26T08:38:36.452Z,20.50
2022-08-26T08:39:36.115Z,23.60
2022-08-26T08:40:36.203Z,28.70
2022-08-26T08:41:36.092Z,23.10
2022-08-26T08:42:36.365Z,27.50
2022-08-26T08:43:37.650Z,19.50
2022-08-26T08:44:36.113Z,26.10
2022-08-26T08:45:37.242Z,24.80
2022-08-26T08:46:36.062Z,20.50
2022-08-26T08:47:36.022Z,20.50
2022-08-26T08:48:36.016Z,28.90
2022-08-26T08:49:36.298Z,23.20
2022-08-26T08:50:36.059Z,21.90
2022-08-26T08:51:36.016Z,17.00
2022-08-26T08:52:35.977Z,27.00
2022-08-26T08:53:35.977Z,25.30
2022-08-26T08:54:35.965Z,22.90
2022-08-26T08:55:35.949Z,21.90
2022-08-26T08:56:36.246Z,22.00
2022-08-26T08:57:35.922Z,22.60
2022-08-26T08:58:35.936Z,21.60
2022-08-26T08:59:35.902Z,26.10
2022-08-26T09:00:39.672Z,19.60
2022-08-26T09:01:35.943Z,23.80
2022-08-26T09:02:36.002Z,27.60
2022-08-26T09:03:36.147Z,18.80
2022-08-26T09:04:35.853Z,19.00
2022-08-26T09:05:38.590Z,23.90
2022-08-26T09:06:35.847Z,21.20
2022-08-26T09:07:36.723Z,23.80
2022-08-26T09:08:35.877Z,26.10
2022-08-26T09:09:35.802Z,17.40
2022-08-26T09:10:36.146Z,25.40
2022-08-26T09:11:35.779Z,21.40
2022-08-26T09:12:35.804Z,20.20
2022-08-26T09:13:35.756Z,23.20
2022-08-26T09:14:35.791Z,19.80
2022-08-26T09:15:35.735Z,23.60
2022-08-26T09:16:35.785Z,19.90
2022-08-26T09:17:35.980Z,20.00
2022-08-26T09:18:35.742Z,23.00
2022-08-26T09:19:35.701Z,18.40
2022-08-26T09:20:35.709Z,24.80
2022-08-26T09:21:35.703Z,24.80
2022-08-26T09:22:35.674Z,20.40
2022-08-26T09:23:35.929Z,21.10
2022-08-26T09:24:41.622Z,25.40
2022-08-26T09:25:35.669Z,22.80
2022-08-26T09:26:35.644Z,23.10
2022-08-26T09:27:35.606Z,21.90
2022-08-26T09:28:35.597Z,24.90
2022-08-26T09:29:35.593Z,21.50
2022-08-26T09:30:35.629Z,22.70
2022-08-26T09:31:35.866Z,27.00
2022-08-26T09:32:35.619Z,19.80
2022-08-26T09:33:35.535Z,21.30
2022-08-26T09:34:35.547Z,21.70
2022-08-26T09:35:35.529Z,21.80
2022-08-26T09:36:39.526Z,23.10
2022-08-26T09:37:35.593Z,32.20
2022-08-26T09:38:35.798Z,19.80
2022-08-26T09:39:37.511Z,22.70
2022-08-26T09:40:35.563Z,20.90
2022-08-26T09:41:35.471Z,20.00
2022-08-26T09:42:35.446Z,20.90
2022-08-26T09:43:35.430Z,24.90
2022-08-26T09:44:35.489Z,22.30
2022-08-26T09:45:35.776Z,25.60
2022-08-26T09:46:35.584Z,23.30
2022-08-26T09:47:35.394Z,22.30
2022-08-26T09:48:36.031Z,27.30
2022-08-26T09:49:36.402Z,23.20
2022-08-26T09:50:35.391Z,17.70
2022-08-26T09:51:35.337Z,23.20
2022-08-26T09:52:35.646Z,22.10
2022-08-26T09:53:35.325Z,25.30
2022-08-26T09:54:35.350Z,20.40
2022-08-26T09:55:35.309Z,25.30
2022-08-26T09:56:35.339Z,21.50
2022-08-26T09:57:35.281Z,25.10
2022-08-26T09:58:35.280Z,21.80
2022-08-26T09:59:35.550Z,23.50
2022-08-26T10:00:35.248Z,17.00
2022-08-26T10:01:35.411Z,20.50
2022-08-26T10:02:35.271Z,20.30
2022-08-26T10:03:35.214Z,19.50
2022-08-26T10:04:35.338Z,22.80
2022-08-26T10:05:35.200Z,20.90
2022-08-26T10:06:35.500Z,19.80
2022-08-26T10:07:35.178Z,19.00
2022-08-26T10:08:35.231Z,21.50
2022-08-26T10:09:35.152Z,17.80
2022-08-26T10:10:35.147Z,24.40
2022-08-26T10:11:35.148Z,17.20
2022-08-26T10:12:35.121Z,21.60
2022-08-26T10:13:35.423Z,20.00
2022-08-26T10:14:35.221Z,17.50
2022-08-26T10:15:35.103Z,22.70
2022-08-26T10:16:35.127Z,20.10
2022-08-26T10:17:35.083Z,20.50
2022-08-26T10:18:35.078Z,18.70
2022-08-26T10:19:41.650Z,17.50
2022-08-26T10:20:35.082Z,27.60
2022-08-26T10:21:35.053Z,21.70
2022-08-26T10:22:35.020Z,17.40
2022-08-26T10:23:35.026Z,18.90
2022-08-26T10:24:34.998Z,20.10
2022-08-26T10:25:34.996Z,16.80
2022-08-26T10:26:35.024Z,17.30
2022-08-26T10:27:34.996Z,20.30
2022-08-26T10:28:34.957Z,21.10
2022-08-26T10:29:34.947Z,17.80
2022-08-26T10:30:34.958Z,24.80
2022-08-26T10:31:40.310Z,20.20
2022-08-26T10:32:34.947Z,19.30
2022-08-26T10:33:34.919Z,17.80
2022-08-26T10:34:34.899Z,24.20
2022-08-26T10:35:34.885Z,19.00
2022-08-26T10:36:47.024Z,20.30
2022-08-26T10:37:35.151Z,20.90
2022-08-26T10:38:34.877Z,16.30
2022-08-26T10:39:34.852Z,15.50
2022-08-26T10:40:34.898Z,19.80
2022-08-26T10:41:34.818Z,16.80
2022-08-26T10:42:34.809Z,16.50
2022-08-26T10:43:34.854Z,16.80
2022-08-26T10:44:34.835Z,18.20
2022-08-26T10:45:34.829Z,16.80
2022-08-26T10:46:34.764Z,15.90
2022-08-26T10:47:34.765Z,19.80
2022-08-26T10:48:35.471Z,18.90
2022-08-26T10:49:35.010Z,15.30
2022-08-26T10:50:34.791Z,22.50
2022-08-26T10:51:34.730Z,15.90
2022-08-26T10:52:34.703Z,15.90
2022-08-26T10:53:34.699Z,15.50
2022-08-26T10:54:34.679Z,15.60
2022-08-26T10:55:35.135Z,17.70
2022-08-26T10:56:34.996Z,16.10
2022-08-26T10:57:34.671Z,18.50
2022-08-26T10:58:34.631Z,18.20
2022-08-26T10:59:34.638Z,16.10
2022-08-26T11:00:34.625Z,14.70
2022-08-26T11:01:34.616Z,19.50
2022-08-26T11:02:34.638Z,18.90
2022-08-26T11:03:34.877Z,16.40
2022-08-26T11:04:35.089Z,15.00
2022-08-26T11:05:34.574Z,14.80
2022-08-26T11:06:37.005Z,18.50
2022-08-26T11:07:34.544Z,17.10
2022-08-26T11:08:34.556Z,16.20
2022-08-26T11:09:34.531Z,12.90
2022-08-26T11:10:34.800Z,14.20
2022-08-26T11:11:34.513Z,17.00
2022-08-26T11:12:34.495Z,12.50
2022-08-26T11:13:36.813Z,16.40
2022-08-26T11:14:42.061Z,14.80
2022-08-26T11:15:34.470Z,19.50
2022-08-26T11:16:34.454Z,13.30
2022-08-26T11:17:34.436Z,18.00
2022-08-26T11:18:34.428Z,17.30
2022-08-26T11:19:57.075Z,13.80
2022-08-26T11:20:34.448Z,12.90
2022-08-26T11:21:34.397Z,17.30
2022-08-26T11:22:34.379Z,12.40
2022-08-26T11:23:34.656Z,11.80
2022-08-26T11:24:34.360Z,14.00
2022-08-26T11:25:34.362Z,15.10
2022-08-26T11:26:37.740Z,13.40
2022-08-26T11:27:34.351Z,12.40
2022-08-26T11:28:34.323Z,13.20
2022-08-26T11:29:34.334Z,13.80
2022-08-26T11:30:34.578Z,15.30
2022-08-26T11:31:34.296Z,14.30
2022-08-26T11:32:34.311Z,14.00
2022-08-26T11:33:34.297Z,16.40
2022-08-26T11:34:34.248Z,14.60
2022-08-26T11:35:34.257Z,11.90
2022-08-26T11:36:34.252Z,14.60
2022-08-26T11:37:34.765Z,12.20
2022-08-26T11:38:34.268Z,15.70
2022-08-26T11:39:36.850Z,11.70
2022-08-26T11:40:34.283Z,13.80
2022-08-26T11:41:34.191Z,18.90
2022-08-26T11:42:34.171Z,11.10
2022-08-26T11:43:34.183Z,18.20
2022-08-26T11:44:34.494Z,15.80
2022-08-26T11:45:34.224Z,14.60
2022-08-26T11:46:34.131Z,11.30
2022-08-26T11:47:34.139Z,11.20
2022-08-26T11:48:34.124Z,11.00
2022-08-26T11:49:34.109Z,11.60
2022-08-26T11:50:34.163Z,10.80
2022-08-26T11:51:38.204Z,13.10
2022-08-26T11:52:34.070Z,12.70
2022-08-26T11:53:34.065Z,14.50
2022-08-26T11:54:35.603Z,14.20
2022-08-26T11:55:34.038Z,12.10
2022-08-26T11:56:34.055Z,10.40
2022-08-26T11:57:34.026Z,11.80
2022-08-26T11:58:33.999Z,12.00
2022-08-26T12:00:34.633Z,11.70
2022-08-26T12:01:33.983Z,11.60
2022-08-26T12:02:34.006Z,11.30
2022-08-26T12:03:34.106Z,9.90
2022-08-26T12:04:34.373Z,9.10
2022-08-26T12:05:33.940Z,10.40
2022-08-26T12:06:35.460Z,12.50
2022-08-26T12:07:33.917Z,11.20
2022-08-26T12:08:33.952Z,13.50
2022-08-26T12:09:33.906Z,10.80
2022-08-26T12:10:33.907Z,10.20
2022-08-26T12:11:33.885Z,14.50
2022-08-26T12:12:35.211Z,9.00
2022-08-26T12:13:33.865Z,10.70
2022-08-26T12:14:33.894Z,9.90
2022-08-26T12:15:33.834Z,9.40
2022-08-26T12:16:34.126Z,11.50
2022-08-26T12:17:33.833Z,9.10
2022-08-26T12:18:33.819Z,10.10
2022-08-26T12:19:33.832Z,10.90
2022-08-26T12:20:33.822Z,13.80
2022-08-26T12:21:34.670Z,12.10
2022-08-26T12:22:33.761Z,12.20
2022-08-26T12:23:33.768Z,10.60
2022-08-26T12:24:33.740Z,9.80
2022-08-26T12:25:36.122Z,8.40
2022-08-26T12:26:33.762Z,16.30
2022-08-26T12:27:33.715Z,9.70
2022-08-26T12:28:33.980Z,10.20
2022-08-26T12:29:33.696Z,10.70
2022-08-26T12:30:33.684Z,11.10
2022-08-26T12:31:33.737Z,11.50
2022-08-26T12:32:33.690Z,9.50
2022-08-26T12:33:33.650Z,11.40
2022-08-26T12:34:33.643Z,7.90
2022-08-26T12:35:34.032Z,8.00
2022-08-26T12:36:33.627Z,7.80
2022-08-26T12:37:33.630Z,10.20
2022-08-26T12:38:33.653Z,12.00
2022-08-26T12:39:33.598Z,10.90
2022-08-26T12:40:33.610Z,11.10
2022-08-26T12:41:33.576Z,11.80
2022-08-26T12:42:33.874Z,11.20
2022-08-26T12:43:33.593Z,11.10
2022-08-26T12:44:33.587Z,9.50
2022-08-26T12:45:33.640Z,10.20
2022-08-26T12:46:33.507Z,8.50
2022-08-26T12:47:41.927Z,7.40
2022-08-26T12:48:33.491Z,8.00
2022-08-26T12:49:33.962Z,8.40
2022-08-26T12:50:33.524Z,11.00
2022-08-26T12:51:33.514Z,6.90
2022-08-26T12:52:33.471Z,9.30
2022-08-26T12:53:33.442Z,9.40
2022-08-26T12:54:33.463Z,8.10
2022-08-26T12:55:33.448Z,11.30
2022-08-26T12:56:33.822Z,9.70
2022-08-26T12:57:33.417Z,8.90
2022-08-26T12:58:33.389Z,12.50
2022-08-26T12:59:33.389Z,5.90
2022-08-26T13:00:33.447Z,9.20